Fort Neal, West Virginia
Current Conditions -  °F | °C
As of 5:53 AM on Saturday 22 Nov 2014 (Local Time) from KPKB Reporting Station
Clear Clear  
Wind Chill: 16°   Ceiling: Unl
Heat Index: 16°   Visibility: 8mi
Dew Point: 11°   Wind: 0mph
Humidity: 81%   Direction: NA
Pressure: 30.39"   Gusts: NA
Location:  39.2652°N, 81.5633°W
Report Text: KPKB 221053Z AUTO 00000KT 8SM CLR M09/M12 A3039 RMK AO2 SLP301 T10891117
Loading
Personal Weather Stations






























Interactive Weather Map New forecast layout! Learn more

10-Day Weather Forecast

Advertisements
Track Severe Weather on mobile